createdAt,value
2018-07-23T00:01:56.385Z,9.10
2018-07-23T00:04:24.708Z,10.40
2018-07-23T00:06:52.688Z,10.03
2018-07-23T00:09:20.950Z,13.70
2018-07-23T00:11:49.187Z,9.93
2018-07-23T00:14:17.433Z,10.07
2018-07-23T00:16:45.659Z,10.13
2018-07-23T00:19:13.883Z,11.80
2018-07-23T00:21:42.128Z,14.20
2018-07-23T00:24:10.133Z,16.23
2018-07-23T00:26:38.409Z,15.90
2018-07-23T00:29:06.449Z,14.13
2018-07-23T00:31:34.837Z,14.80
2018-07-23T00:34:03.140Z,13.37
2018-07-23T00:36:31.359Z,15.33
2018-07-23T00:38:59.616Z,13.00
2018-07-23T00:41:27.832Z,12.37
2018-07-23T00:43:56.093Z,12.80
2018-07-23T00:46:24.340Z,13.30
2018-07-23T00:48:52.642Z,13.30
2018-07-23T00:51:20.946Z,13.13
2018-07-23T00:53:49.205Z,12.80
2018-07-23T00:56:17.490Z,15.27
2018-07-23T00:58:45.735Z,12.33
2018-07-23T01:01:14.123Z,13.67
2018-07-23T01:03:42.364Z,14.67
2018-07-23T01:06:10.640Z,13.33
2018-07-23T01:08:39.209Z,12.33
2018-07-23T01:11:07.439Z,13.37
2018-07-23T01:13:35.408Z,13.00
2018-07-23T01:16:03.728Z,12.97
2018-07-23T01:18:31.983Z,13.47
2018-07-23T01:21:00.573Z,12.13
2018-07-23T01:23:28.896Z,11.40
2018-07-23T01:25:57.212Z,11.90
2018-07-23T01:28:25.464Z,13.50
2018-07-23T01:30:53.691Z,12.10
2018-07-23T01:33:21.988Z,10.87
2018-07-23T01:35:50.246Z,12.13
2018-07-23T01:38:18.485Z,11.80
2018-07-23T01:40:46.751Z,11.33
2018-07-23T01:43:15.005Z,11.60
2018-07-23T01:45:43.473Z,11.43
2018-07-23T01:48:11.728Z,10.07
2018-07-23T01:50:40.062Z,11.57
2018-07-23T01:53:08.436Z,10.10
2018-07-23T01:55:36.720Z,10.10
2018-07-23T01:58:05.233Z,10.17
2018-07-23T02:00:33.461Z,11.20
2018-07-23T02:03:01.789Z,12.10
2018-07-23T02:05:30.091Z,12.17
2018-07-23T02:07:58.064Z,10.00
2018-07-23T02:10:26.431Z,10.17
2018-07-23T02:12:55.121Z,9.83
2018-07-23T02:15:23.093Z,9.10
2018-07-23T02:17:51.431Z,10.63
2018-07-23T02:20:19.777Z,9.40
2018-07-23T02:22:48.019Z,10.00
2018-07-23T02:25:16.473Z,10.47
2018-07-23T02:27:44.734Z,9.00
2018-07-23T02:30:12.934Z,10.10
2018-07-23T02:32:41.174Z,10.53
2018-07-23T02:35:09.559Z,10.30
2018-07-23T02:37:37.950Z,10.67
2018-07-23T02:40:06.325Z,10.17
2018-07-23T02:42:34.550Z,10.57
2018-07-23T02:45:03.031Z,10.70
2018-07-23T02:47:31.284Z,10.37
2018-07-23T02:49:59.571Z,11.43
2018-07-23T02:52:27.552Z,10.23
2018-07-23T02:54:55.777Z,10.20
2018-07-23T02:57:23.997Z,10.23
2018-07-23T02:59:52.299Z,10.70
2018-07-23T03:02:20.597Z,11.00
2018-07-23T03:04:48.867Z,10.17
2018-07-23T03:07:17.169Z,10.50
2018-07-23T03:09:45.426Z,10.30
2018-07-23T03:12:13.657Z,10.43
2018-07-23T03:14:41.993Z,9.93
2018-07-23T03:17:10.418Z,9.30
2018-07-23T03:19:38.625Z,9.87
2018-07-23T03:22:06.898Z,11.10
2018-07-23T03:24:34.973Z,11.47
2018-07-23T03:27:03.229Z,11.30
2018-07-23T03:29:31.633Z,11.50
2018-07-23T03:31:59.925Z,12.40
2018-07-23T03:34:28.634Z,13.33
2018-07-23T03:36:56.865Z,12.87
2018-07-23T03:39:25.237Z,12.60
2018-07-23T03:41:53.513Z,13.47
2018-07-23T03:44:22.061Z,13.17
2018-07-23T03:46:50.324Z,14.23
2018-07-23T03:49:18.629Z,12.87
2018-07-23T03:51:47.234Z,13.30
2018-07-23T03:54:15.475Z,14.07
2018-07-23T03:56:43.509Z,14.30
2018-07-23T03:59:12.189Z,13.90
2018-07-23T04:01:40.530Z,14.07
2018-07-23T04:04:08.937Z,13.20
2018-07-23T04:06:37.207Z,13.60
2018-07-23T04:09:07.993Z,14.27
2018-07-23T04:11:36.365Z,14.00
2018-07-23T04:14:04.743Z,12.77
2018-07-23T04:16:33.034Z,13.13
2018-07-23T04:19:01.353Z,13.87
2018-07-23T04:21:29.619Z,14.90
2018-07-23T04:23:57.904Z,13.73
2018-07-23T04:26:26.661Z,14.60
2018-07-23T04:28:55.007Z,14.97
2018-07-23T04:31:23.474Z,16.13
2018-07-23T04:33:51.925Z,17.57
2018-07-23T04:36:20.255Z,17.80
2018-07-23T04:38:48.241Z,18.00
2018-07-23T04:41:16.509Z,17.57
2018-07-23T04:43:45.329Z,19.40
2018-07-23T04:46:13.574Z,16.50
2018-07-23T04:48:41.945Z,20.00
2018-07-23T04:51:10.241Z,19.30
2018-07-23T04:53:38.549Z,19.70
2018-07-23T04:56:06.858Z,20.00
2018-07-23T04:58:35.187Z,19.20
2018-07-23T05:01:03.571Z,19.10
2018-07-23T05:03:31.918Z,19.77
2018-07-23T05:06:00.273Z,20.67
2018-07-23T05:08:28.549Z,20.97
2018-07-23T05:10:56.842Z,21.30
2018-07-23T05:13:25.213Z,20.20
2018-07-23T05:15:54.492Z,19.23
2018-07-23T05:18:22.794Z,19.77
2018-07-23T05:20:51.143Z,18.87
2018-07-23T05:23:19.668Z,18.80
2018-07-23T05:25:47.992Z,18.90
2018-07-23T05:28:16.337Z,19.70
2018-07-23T05:30:44.621Z,19.13
2018-07-23T05:33:12.897Z,18.00
2018-07-23T05:35:41.190Z,19.83
2018-07-23T05:38:09.491Z,19.50
2018-07-23T05:40:37.843Z,19.60
2018-07-23T05:43:06.313Z,17.23
2018-07-23T05:45:34.577Z,16.83
2018-07-23T05:48:02.938Z,15.87
2018-07-23T05:50:31.306Z,18.20
2018-07-23T05:52:59.579Z,18.27
2018-07-23T05:55:27.871Z,17.73
2018-07-23T05:57:56.174Z,13.83
2018-07-23T06:00:24.550Z,14.30
2018-07-23T06:02:53.006Z,14.53
2018-07-23T06:05:21.311Z,13.53
2018-07-23T06:07:49.802Z,14.93
2018-07-23T06:10:18.055Z,14.70
2018-07-23T06:12:46.329Z,9.00
2018-07-23T06:15:14.684Z,9.63
2018-07-23T06:17:42.953Z,8.10
2018-07-23T06:20:11.350Z,8.70
2018-07-23T06:22:39.738Z,10.23
2018-07-23T06:25:08.837Z,11.03
2018-07-23T06:27:37.314Z,9.60
2018-07-23T06:30:08.047Z,10.53
2018-07-23T06:32:36.321Z,10.87
2018-07-23T06:35:04.683Z,11.50
2018-07-23T06:37:33.101Z,10.90
2018-07-23T06:40:01.569Z,9.93
2018-07-23T06:42:29.984Z,15.20
2018-07-23T06:44:58.320Z,10.20
2018-07-23T06:47:27.101Z,9.67
2018-07-23T06:49:55.414Z,11.33
2018-07-23T06:52:23.823Z,9.13
2018-07-23T06:54:52.113Z,8.37
2018-07-23T06:57:20.358Z,7.73
2018-07-23T06:59:48.745Z,11.70
2018-07-23T07:02:16.985Z,13.17
2018-07-23T07:04:45.759Z,10.73
2018-07-23T07:07:13.825Z,10.40
2018-07-23T07:09:42.136Z,12.67
2018-07-23T07:12:10.377Z,12.90
2018-07-23T07:14:38.573Z,10.57
2018-07-23T07:17:06.785Z,10.33
2018-07-23T07:19:35.006Z,11.47
2018-07-23T07:22:03.315Z,10.97
2018-07-23T07:24:31.542Z,11.20
2018-07-23T07:26:59.742Z,11.20
2018-07-23T07:29:28.006Z,10.60
2018-07-23T07:31:56.424Z,10.50
2018-07-23T07:34:24.754Z,11.93
2018-07-23T07:36:53.039Z,11.20
2018-07-23T07:39:21.360Z,11.40
2018-07-23T07:41:49.646Z,11.20
2018-07-23T07:44:17.869Z,13.00
2018-07-23T07:46:46.093Z,10.67
2018-07-23T07:49:14.476Z,11.23
2018-07-23T07:51:42.707Z,12.63
2018-07-23T07:54:10.986Z,13.30
2018-07-23T07:56:39.321Z,15.30
2018-07-23T07:59:07.691Z,16.73
2018-07-23T08:01:36.027Z,14.10
2018-07-23T08:04:04.373Z,17.77
2018-07-23T08:06:32.677Z,15.43
2018-07-23T08:09:01.090Z,17.27
2018-07-23T08:11:29.368Z,14.60
2018-07-23T08:13:57.639Z,17.87
2018-07-23T08:16:25.917Z,15.90
2018-07-23T08:18:54.152Z,16.20
2018-07-23T08:21:22.469Z,15.90
2018-07-23T08:23:50.813Z,15.53
2018-07-23T08:26:19.113Z,16.30
2018-07-23T08:28:47.355Z,18.17
2018-07-23T08:31:16.160Z,15.63
2018-07-23T08:33:44.513Z,15.20
2018-07-23T08:36:12.894Z,14.27
2018-07-23T08:38:41.219Z,15.43
2018-07-23T08:41:09.686Z,13.53
2018-07-23T08:43:37.941Z,13.27
2018-07-23T08:46:06.270Z,12.93
2018-07-23T08:48:34.711Z,13.30
2018-07-23T08:51:03.018Z,14.87
2018-07-23T08:53:31.247Z,13.33
2018-07-23T08:55:59.596Z,13.13
2018-07-23T08:58:28.024Z,14.53
2018-07-23T09:00:56.250Z,14.57
2018-07-23T09:03:24.581Z,13.07
2018-07-23T09:05:52.950Z,15.33
2018-07-23T09:08:21.236Z,12.60
2018-07-23T09:10:49.659Z,12.17
2018-07-23T09:13:18.013Z,12.73
2018-07-23T09:15:46.302Z,13.63
2018-07-23T09:18:14.629Z,13.57
2018-07-23T09:20:42.867Z,15.73
2018-07-23T09:23:11.153Z,12.83
2018-07-23T09:25:44.842Z,13.33
2018-07-23T09:28:13.197Z,13.77
2018-07-23T09:30:46.940Z,13.40
2018-07-23T09:33:15.265Z,12.90
2018-07-23T09:35:43.624Z,13.80
2018-07-23T09:38:11.866Z,14.77
2018-07-23T09:40:40.184Z,13.30
2018-07-23T09:43:08.494Z,13.27
2018-07-23T09:45:36.805Z,12.63
2018-07-23T09:48:05.179Z,12.00
2018-07-23T09:50:33.446Z,11.27
2018-07-23T09:53:01.732Z,13.27
2018-07-23T09:55:29.975Z,13.70
2018-07-23T09:57:58.250Z,10.23
2018-07-23T10:00:32.078Z,13.17
2018-07-23T10:03:00.505Z,11.50
2018-07-23T10:05:28.807Z,13.80
2018-07-23T10:07:57.107Z,8.60
2018-07-23T10:10:25.349Z,10.23
2018-07-23T10:12:53.959Z,9.50
2018-07-23T10:15:23.062Z,8.40
2018-07-23T10:17:51.321Z,6.43
2018-07-23T10:20:19.630Z,5.47
2018-07-23T10:22:47.863Z,5.03
2018-07-23T10:25:16.187Z,5.13
2018-07-23T10:27:44.539Z,5.63
2018-07-23T10:30:13.223Z,5.60
2018-07-23T10:32:41.688Z,6.10
2018-07-23T10:35:09.961Z,5.93
2018-07-23T10:37:38.247Z,5.80
2018-07-23T10:40:06.498Z,6.17
2018-07-23T10:42:34.760Z,4.83
2018-07-23T10:45:03.100Z,4.30
2018-07-23T10:47:31.401Z,5.53
2018-07-23T10:49:59.629Z,5.90
2018-07-23T10:52:27.949Z,5.20
2018-07-23T10:54:56.213Z,4.43
2018-07-23T10:57:24.650Z,4.47
2018-07-23T10:59:53.049Z,5.03
2018-07-23T11:02:21.295Z,5.93
2018-07-23T11:04:49.533Z,5.23
2018-07-23T11:07:17.817Z,5.70
2018-07-23T11:09:46.061Z,5.47
2018-07-23T11:12:14.371Z,5.07
2018-07-23T11:14:42.610Z,5.70
2018-07-23T11:17:11.287Z,5.13
2018-07-23T11:19:39.537Z,6.23
2018-07-23T11:22:07.975Z,6.27
2018-07-23T11:24:36.278Z,4.50
2018-07-23T11:27:04.609Z,5.40
2018-07-23T11:29:32.889Z,4.83
2018-07-23T11:32:01.265Z,5.00
2018-07-23T11:34:29.482Z,4.77
2018-07-23T11:36:57.735Z,6.70
2018-07-23T11:39:26.045Z,5.07
2018-07-23T11:41:54.370Z,5.60
2018-07-23T11:44:22.609Z,6.00
2018-07-23T11:46:50.938Z,11.13
2018-07-23T11:49:19.295Z,5.07
2018-07-23T11:51:47.522Z,5.07
2018-07-23T11:54:15.774Z,4.17
2018-07-23T11:56:44.382Z,3.57
2018-07-23T11:59:12.701Z,3.63
2018-07-23T12:01:41.070Z,2.47
2018-07-23T12:04:10.405Z,5.73
2018-07-23T12:06:37.518Z,2.47
2018-07-23T12:09:08.046Z,3.60
2018-07-23T12:11:36.399Z,2.43
2018-07-23T12:14:04.889Z,2.40
2018-07-23T12:16:33.178Z,3.50
2018-07-23T12:19:02.074Z,2.40
2018-07-23T12:21:30.702Z,1.97
2018-07-23T12:23:59.069Z,2.40
2018-07-23T12:26:27.421Z,2.30
2018-07-23T12:28:55.734Z,2.13
2018-07-23T12:31:23.986Z,4.13
2018-07-23T12:33:52.248Z,2.10
2018-07-23T12:36:20.565Z,1.97
2018-07-23T12:38:48.881Z,1.80
2018-07-23T12:41:18.116Z,2.20
2018-07-23T12:43:46.417Z,1.87
2018-07-23T12:46:14.767Z,1.90
2018-07-23T12:48:43.077Z,1.90
2018-07-23T12:51:11.460Z,1.73
2018-07-23T12:53:39.879Z,2.10
2018-07-23T12:56:08.399Z,2.27
2018-07-23T12:58:36.666Z,1.83
2018-07-23T13:01:05.365Z,2.00
2018-07-23T13:03:34.357Z,2.73
2018-07-23T13:06:02.958Z,1.40
2018-07-23T13:08:31.269Z,2.07
2018-07-23T13:10:59.787Z,1.90
2018-07-23T13:13:28.094Z,2.57
2018-07-23T13:15:56.386Z,3.20
2018-07-23T13:18:25.566Z,2.40
2018-07-23T13:20:53.898Z,2.07
2018-07-23T13:23:22.166Z,2.00
2018-07-23T13:25:50.498Z,2.20
2018-07-23T13:28:18.789Z,2.47
2018-07-23T13:30:47.117Z,3.00
2018-07-23T13:33:15.386Z,2.40
2018-07-23T13:35:43.777Z,2.40
2018-07-23T13:38:12.188Z,2.60
2018-07-23T13:40:40.566Z,2.13
2018-07-23T13:43:08.805Z,2.20
2018-07-23T13:45:37.055Z,2.30
2018-07-23T13:48:05.595Z,2.30
2018-07-23T13:50:33.974Z,1.90
2018-07-23T13:53:02.539Z,2.00
2018-07-23T13:55:30.862Z,1.83
2018-07-23T13:57:59.530Z,2.90
2018-07-23T14:00:27.923Z,2.70
2018-07-23T14:02:56.193Z,2.27
2018-07-23T14:05:24.518Z,2.30
2018-07-23T14:07:52.839Z,1.93
2018-07-23T14:10:21.182Z,2.20
2018-07-23T14:12:49.466Z,3.23
2018-07-23T14:15:17.774Z,2.33
2018-07-23T14:17:46.075Z,2.23
2018-07-23T14:20:14.390Z,2.20
2018-07-23T14:22:42.673Z,2.80
2018-07-23T14:25:10.962Z,2.20
2018-07-23T14:27:39.265Z,2.30
2018-07-23T14:30:07.513Z,2.40
2018-07-23T14:32:35.863Z,2.50
2018-07-23T14:35:05.344Z,2.23
2018-07-23T14:37:33.846Z,2.30
2018-07-23T14:40:02.178Z,2.57
2018-07-23T14:42:30.442Z,2.23
2018-07-23T14:44:58.738Z,2.20
2018-07-23T14:47:27.018Z,3.00
2018-07-23T14:49:55.392Z,2.70
2018-07-23T14:52:23.987Z,1.97
2018-07-23T14:54:52.255Z,2.60
2018-07-23T14:57:20.609Z,2.77
2018-07-23T14:59:48.884Z,2.63
2018-07-23T15:02:17.169Z,3.00
2018-07-23T15:04:45.510Z,2.63
2018-07-23T15:07:13.858Z,2.73
2018-07-23T15:09:42.076Z,3.00
2018-07-23T15:12:10.694Z,2.47
2018-07-23T15:14:38.929Z,2.37
2018-07-23T15:17:07.165Z,3.10
2018-07-23T15:19:35.534Z,2.37
2018-07-23T15:22:03.940Z,2.67
2018-07-23T15:24:32.224Z,2.93
2018-07-23T15:27:00.461Z,3.27
2018-07-23T15:29:28.706Z,2.30
2018-07-23T15:31:56.981Z,3.03
2018-07-23T15:34:25.254Z,5.13
2018-07-23T15:36:53.253Z,2.70
2018-07-23T15:39:21.505Z,2.90
2018-07-23T15:41:49.861Z,2.97
2018-07-23T15:44:18.404Z,3.47
2018-07-23T15:46:46.474Z,3.60
2018-07-23T15:49:14.750Z,2.53
2018-07-23T15:51:43.049Z,3.13
2018-07-23T15:54:11.296Z,3.07
2018-07-23T15:56:39.571Z,2.30
2018-07-23T15:59:08.177Z,3.77
2018-07-23T16:01:36.324Z,3.40
2018-07-23T16:04:04.588Z,2.57
2018-07-23T16:06:33.580Z,3.33
2018-07-23T16:09:01.843Z,3.00
2018-07-23T16:11:30.170Z,3.07
2018-07-23T16:13:58.530Z,5.63
2018-07-23T16:16:26.828Z,2.63
2018-07-23T16:18:55.169Z,7.23
2018-07-23T16:21:23.412Z,3.07
2018-07-23T16:23:51.749Z,2.90
2018-07-23T16:26:20.060Z,3.60
2018-07-23T16:28:48.262Z,3.23
2018-07-23T16:31:16.719Z,3.87
2018-07-23T16:33:45.038Z,3.30
2018-07-23T16:36:14.101Z,3.20
2018-07-23T16:38:42.363Z,3.27
2018-07-23T16:41:10.805Z,3.90
2018-07-23T16:43:39.272Z,4.30
2018-07-23T16:46:07.855Z,3.37
2018-07-23T16:48:36.156Z,3.90
2018-07-23T16:51:04.510Z,3.47
2018-07-23T16:53:32.766Z,3.43
2018-07-23T16:56:01.013Z,3.93
2018-07-23T16:58:29.245Z,3.27
2018-07-23T17:00:57.529Z,4.13
2018-07-23T17:03:25.793Z,3.90
2018-07-23T17:05:54.003Z,3.23
2018-07-23T17:08:22.266Z,4.80
2018-07-23T17:10:50.514Z,3.50
2018-07-23T17:13:18.993Z,7.33
2018-07-23T17:15:47.293Z,4.00
2018-07-23T17:18:15.591Z,3.70
2018-07-23T17:20:43.836Z,4.00
2018-07-23T17:23:12.145Z,5.00
2018-07-23T17:25:40.618Z,5.73
2018-07-23T17:28:08.981Z,4.17
2018-07-23T17:30:37.413Z,4.37
2018-07-23T17:33:05.831Z,3.73
2018-07-23T17:35:34.504Z,4.13
2018-07-23T17:38:02.700Z,5.20
2018-07-23T17:40:31.005Z,4.17
2018-07-23T17:42:59.225Z,5.60
2018-07-23T17:45:27.496Z,4.43
2018-07-23T17:47:55.773Z,4.00
2018-07-23T17:50:24.147Z,5.00
2018-07-23T17:52:52.795Z,4.60
2018-07-23T17:55:21.116Z,4.33
2018-07-23T17:57:49.526Z,4.33
2018-07-23T18:00:17.881Z,4.57
2018-07-23T18:02:46.199Z,3.90
2018-07-23T18:05:14.440Z,4.43
2018-07-23T18:07:42.797Z,5.63
2018-07-23T18:10:11.184Z,5.10
2018-07-23T18:12:39.492Z,4.60
2018-07-23T18:15:07.741Z,4.30
2018-07-23T18:17:36.084Z,4.30
2018-07-23T18:20:04.593Z,4.20
2018-07-23T18:22:32.860Z,3.93
2018-07-23T18:25:01.797Z,4.10
2018-07-23T18:27:30.089Z,3.77
2018-07-23T18:29:58.505Z,4.27
2018-07-23T18:32:26.788Z,4.10
2018-07-23T18:34:55.139Z,4.73
2018-07-23T18:37:23.407Z,4.33
2018-07-23T18:39:51.812Z,4.30
2018-07-23T18:42:20.097Z,3.90
2018-07-23T18:44:48.387Z,4.23
2018-07-23T18:47:16.975Z,4.17
2018-07-23T18:49:52.359Z,4.23
2018-07-23T18:52:21.176Z,3.77
2018-07-23T18:54:51.232Z,4.50
2018-07-23T18:57:19.497Z,4.37
2018-07-23T18:59:47.898Z,3.80
2018-07-23T19:02:17.517Z,4.17
2018-07-23T19:04:45.886Z,4.20
2018-07-23T19:07:14.172Z,4.43
2018-07-23T19:09:42.717Z,4.20
2018-07-23T19:12:11.385Z,5.53
2018-07-23T19:14:39.704Z,4.00
2018-07-23T19:17:09.360Z,5.33
2018-07-23T19:19:37.625Z,4.53
2018-07-23T19:22:06.176Z,3.80
2018-07-23T19:24:34.461Z,4.80
2018-07-23T19:27:03.160Z,4.17
2018-07-23T19:29:31.434Z,4.40
2018-07-23T19:31:59.685Z,4.13
2018-07-23T19:34:27.954Z,3.90
2018-07-23T19:36:56.378Z,4.33
2018-07-23T19:39:24.704Z,4.00
2018-07-23T19:41:53.063Z,4.63
2018-07-23T19:44:21.472Z,4.73
2018-07-23T19:46:49.711Z,4.63
2018-07-23T19:49:18.016Z,4.40
2018-07-23T19:51:46.282Z,4.80
2018-07-23T19:54:14.537Z,5.90
2018-07-23T19:56:42.841Z,4.60
2018-07-23T19:59:11.125Z,6.60
2018-07-23T20:01:39.495Z,4.40
2018-07-23T20:04:07.950Z,4.20
2018-07-23T20:06:36.274Z,4.23
2018-07-23T20:09:08.527Z,10.03
2018-07-23T20:11:36.985Z,4.47
2018-07-23T20:14:05.344Z,6.30
2018-07-23T20:16:33.612Z,4.27
2018-07-23T20:19:01.949Z,5.60
2018-07-23T20:21:30.296Z,4.77
2018-07-23T20:23:58.649Z,4.80
2018-07-23T20:26:27.060Z,5.50
2018-07-23T20:28:55.372Z,4.93
2018-07-23T20:31:23.376Z,4.50
2018-07-23T20:33:51.629Z,4.80
2018-07-23T20:36:19.908Z,6.93
2018-07-23T20:38:48.281Z,5.00
2018-07-23T20:41:16.565Z,7.27
2018-07-23T20:43:44.970Z,5.53
2018-07-23T20:46:13.315Z,4.67
2018-07-23T20:48:41.704Z,4.70
2018-07-23T20:51:09.977Z,5.20
2018-07-23T20:53:38.208Z,5.70
2018-07-23T20:56:06.549Z,4.90
2018-07-23T20:58:34.860Z,5.40
2018-07-23T21:01:03.100Z,5.27
2018-07-23T21:03:31.479Z,8.70
2018-07-23T21:05:59.836Z,5.93
2018-07-23T21:08:28.112Z,5.70
2018-07-23T21:10:56.396Z,6.20
2018-07-23T21:13:24.668Z,7.80
2018-07-23T21:15:53.067Z,6.33
2018-07-23T21:18:21.327Z,5.97
2018-07-23T21:20:49.606Z,12.10
2018-07-23T21:23:17.934Z,7.77
2018-07-23T21:25:46.256Z,5.40
2018-07-23T21:28:14.531Z,5.17
2018-07-23T21:30:42.961Z,10.33
2018-07-23T21:33:11.204Z,10.50
2018-07-23T21:35:39.431Z,6.70
2018-07-23T21:38:07.696Z,10.80
2018-07-23T21:40:35.960Z,7.07
2018-07-23T21:43:04.261Z,8.10
2018-07-23T21:45:32.240Z,6.47
2018-07-23T21:48:00.547Z,6.60
2018-07-23T21:50:28.822Z,6.90
2018-07-23T21:52:57.094Z,6.07
2018-07-23T21:55:25.364Z,8.47
2018-07-23T21:57:53.722Z,6.73
2018-07-23T22:00:22.072Z,6.40
2018-07-23T22:02:50.301Z,7.73
2018-07-23T22:05:18.578Z,6.70
2018-07-23T22:07:46.801Z,6.50
2018-07-23T22:10:15.105Z,6.47
2018-07-23T22:12:43.482Z,7.20
2018-07-23T22:15:12.068Z,6.23
2018-07-23T22:17:40.352Z,6.67
2018-07-23T22:20:09.173Z,6.53
2018-07-23T22:22:37.505Z,7.77
2018-07-23T22:25:06.025Z,6.60
2018-07-23T22:27:34.421Z,5.93
2018-07-23T22:30:02.722Z,7.20
2018-07-23T22:32:31.024Z,8.60
2018-07-23T22:34:59.231Z,9.13
2018-07-23T22:37:27.456Z,8.07
2018-07-23T22:39:55.761Z,8.00
2018-07-23T22:42:25.153Z,9.30
2018-07-23T22:44:53.537Z,9.10
2018-07-23T22:47:21.845Z,10.30
2018-07-23T22:49:50.137Z,10.17
2018-07-23T22:52:18.534Z,10.50
2018-07-23T22:54:46.810Z,10.80
2018-07-23T22:57:14.804Z,10.33
2018-07-23T22:59:43.093Z,10.90
2018-07-23T23:02:11.425Z,10.17
2018-07-23T23:04:39.698Z,13.83
2018-07-23T23:07:08.013Z,11.03
2018-07-23T23:09:36.243Z,11.13
2018-07-23T23:12:04.633Z,10.60
2018-07-23T23:14:32.752Z,10.83
2018-07-23T23:17:01.336Z,11.70
2018-07-23T23:19:29.831Z,11.27
2018-07-23T23:21:58.235Z,11.57
2018-07-23T23:24:26.881Z,10.70
2018-07-23T23:26:55.117Z,11.03
2018-07-23T23:29:23.414Z,10.83
2018-07-23T23:31:51.733Z,11.20
2018-07-23T23:34:20.008Z,11.53
2018-07-23T23:36:48.282Z,11.23
2018-07-23T23:39:16.545Z,10.70
2018-07-23T23:41:44.785Z,10.50
2018-07-23T23:44:12.984Z,10.80
2018-07-23T23:46:41.278Z,10.40
2018-07-23T23:49:09.595Z,10.80
2018-07-23T23:51:37.924Z,10.80
2018-07-23T23:54:06.248Z,10.33
2018-07-23T23:56:34.538Z,10.40
2018-07-23T23:59:02.884Z,10.20
